createdAt,value
2022-11-06T00:01:35.359Z,13.48
2022-11-06T00:03:41.014Z,13.02
2022-11-06T00:05:58.777Z,12.75
2022-11-06T00:10:10.773Z,12.25
2022-11-06T00:12:18.298Z,13.10
2022-11-06T00:14:26.323Z,13.48
2022-11-06T00:16:31.868Z,13.25
2022-11-06T00:18:38.264Z,12.70
2022-11-06T00:20:47.923Z,12.88
2022-11-06T00:22:54.498Z,12.20
2022-11-06T00:24:59.530Z,12.75
2022-11-06T00:27:05.580Z,12.45
2022-11-06T00:29:10.609Z,12.00
2022-11-06T00:31:21.675Z,12.98
2022-11-06T00:33:26.623Z,12.07
2022-11-06T00:35:31.711Z,12.25
2022-11-06T00:37:37.759Z,11.75
2022-11-06T00:39:42.898Z,12.23
2022-11-06T00:41:47.920Z,12.27
2022-11-06T00:43:54.849Z,12.07
2022-11-06T00:46:05.529Z,12.35
2022-11-06T00:48:13.445Z,11.05
2022-11-06T00:50:18.815Z,10.82
2022-11-06T00:52:23.793Z,10.13
2022-11-06T00:54:29.261Z,10.68
2022-11-06T00:56:35.441Z,11.65
2022-11-06T00:58:41.396Z,10.73
2022-11-06T01:00:46.352Z,10.93
2022-11-06T01:02:51.552Z,11.75
2022-11-06T01:04:59.207Z,11.68
2022-11-06T01:07:04.199Z,11.07
2022-11-06T01:09:10.916Z,11.73
2022-11-06T01:11:18.720Z,10.45
2022-11-06T01:13:23.716Z,10.40
2022-11-06T01:15:28.729Z,10.40
2022-11-06T01:17:33.724Z,11.32
2022-11-06T01:19:38.874Z,9.80
2022-11-06T01:21:48.829Z,10.90
2022-11-06T01:23:57.122Z,10.20
2022-11-06T01:26:03.587Z,9.60
2022-11-06T01:28:08.804Z,9.63
2022-11-06T01:30:16.107Z,9.73
2022-11-06T01:32:21.126Z,9.70
2022-11-06T01:34:26.113Z,9.38
2022-11-06T01:36:32.377Z,9.57
2022-11-06T01:38:43.684Z,10.52
2022-11-06T01:40:51.391Z,9.27
2022-11-06T01:42:56.394Z,10.40
2022-11-06T01:45:29.738Z,8.82
2022-11-06T01:47:36.197Z,9.48
2022-11-06T01:49:41.964Z,8.80
2022-11-06T01:51:52.656Z,8.75
2022-11-06T01:54:00.745Z,8.60
2022-11-06T01:56:12.121Z,8.57
2022-11-06T01:58:23.155Z,8.80
2022-11-06T02:00:29.746Z,7.65
2022-11-06T02:02:35.115Z,7.63
2022-11-06T02:04:44.319Z,8.57
2022-11-06T02:06:50.694Z,7.60
2022-11-06T02:08:55.835Z,7.55
2022-11-06T02:11:03.882Z,7.18
2022-11-06T02:13:24.402Z,7.05
2022-11-06T02:15:45.869Z,7.70
2022-11-06T02:18:10.813Z,7.45
2022-11-06T02:20:24.751Z,7.50
2022-11-06T02:22:45.264Z,7.30
2022-11-06T02:25:19.730Z,7.97
2022-11-06T02:27:30.438Z,7.90
2022-11-06T02:29:41.491Z,7.85
2022-11-06T02:31:49.126Z,7.90
2022-11-06T02:34:00.884Z,8.52
2022-11-06T02:36:11.877Z,8.95
2022-11-06T02:38:22.981Z,8.35
2022-11-06T02:40:33.974Z,8.23
2022-11-06T02:42:47.274Z,7.53
2022-11-06T02:44:58.083Z,7.20
2022-11-06T02:47:09.435Z,7.43
2022-11-06T02:49:21.337Z,7.63
2022-11-06T02:51:33.096Z,7.45
2022-11-06T02:53:40.828Z,7.95
2022-11-06T02:55:51.468Z,7.32
2022-11-06T02:58:03.530Z,7.03
2022-11-06T03:00:15.360Z,6.40
2022-11-06T03:02:28.934Z,6.00
2022-11-06T03:04:40.852Z,6.15
2022-11-06T03:06:53.826Z,5.97
2022-11-06T03:09:05.368Z,6.00
2022-11-06T03:11:22.666Z,5.95
2022-11-06T03:13:39.128Z,5.55
2022-11-06T03:15:51.014Z,5.70
2022-11-06T03:18:05.255Z,5.85
2022-11-06T03:20:24.233Z,6.38
2022-11-06T03:22:35.394Z,6.15
2022-11-06T03:24:54.308Z,5.95
2022-11-06T03:27:00.615Z,5.78
2022-11-06T03:29:16.069Z,6.55
2022-11-06T03:31:30.277Z,6.18
2022-11-06T03:33:41.754Z,6.05
2022-11-06T03:35:51.410Z,6.00
2022-11-06T03:38:02.938Z,5.88
2022-11-06T03:40:16.451Z,5.93
2022-11-06T03:42:25.989Z,6.22
2022-11-06T03:44:37.341Z,5.47
2022-11-06T03:46:49.232Z,5.82
2022-11-06T03:48:58.547Z,5.38
2022-11-06T03:51:08.694Z,6.03
2022-11-06T03:53:20.612Z,6.05
2022-11-06T03:55:31.116Z,6.30
2022-11-06T03:57:44.445Z,5.78
2022-11-06T04:00:00.055Z,5.68
2022-11-06T04:02:06.310Z,5.90
2022-11-06T04:04:19.092Z,5.78
2022-11-06T04:06:30.143Z,5.82
2022-11-06T04:08:48.588Z,5.57
2022-11-06T04:11:11.174Z,6.50
2022-11-06T04:13:28.712Z,6.45
2022-11-06T04:15:40.659Z,5.63
2022-11-06T04:17:45.644Z,5.68
2022-11-06T04:19:53.508Z,6.10
2022-11-06T04:22:34.449Z,5.45
2022-11-06T04:25:08.107Z,6.50
2022-11-06T04:27:41.066Z,6.55
2022-11-06T04:30:03.599Z,6.18
2022-11-06T04:32:20.132Z,6.20
2022-11-06T04:34:35.250Z,5.88
2022-11-06T04:36:47.759Z,6.28
2022-11-06T04:39:02.524Z,6.50
2022-11-06T04:41:18.607Z,5.88
2022-11-06T04:43:31.295Z,6.45
2022-11-06T04:45:42.845Z,6.43
2022-11-06T04:47:52.338Z,5.80
2022-11-06T04:50:02.617Z,6.53
2022-11-06T04:52:12.474Z,6.57
2022-11-06T04:54:18.836Z,6.70
2022-11-06T04:56:35.070Z,6.88
2022-11-06T04:58:41.300Z,6.57
2022-11-06T05:00:51.149Z,7.03
2022-11-06T05:02:58.805Z,6.97
2022-11-06T05:05:03.882Z,6.80
2022-11-06T05:07:08.921Z,7.18
2022-11-06T05:09:14.213Z,6.68
2022-11-06T05:11:19.247Z,6.95
2022-11-06T05:13:24.234Z,7.10
2022-11-06T05:15:29.862Z,7.00
2022-11-06T05:17:36.683Z,7.07
2022-11-06T05:19:45.542Z,6.30
2022-11-06T05:22:03.337Z,7.45
2022-11-06T05:26:16.158Z,6.63
2022-11-06T05:28:21.206Z,6.32
2022-11-06T05:30:27.466Z,6.47
2022-11-06T05:32:33.596Z,6.15
2022-11-06T05:34:38.668Z,6.63
2022-11-06T05:36:46.272Z,6.10
2022-11-06T05:38:51.810Z,6.10
2022-11-06T05:40:56.837Z,6.72
2022-11-06T05:43:02.369Z,6.50
2022-11-06T05:45:09.190Z,6.72
2022-11-06T05:47:14.363Z,6.90
2022-11-06T05:49:21.482Z,6.00
2022-11-06T05:51:26.501Z,6.43
2022-11-06T05:53:35.649Z,6.32
2022-11-06T05:55:41.267Z,6.65
2022-11-06T05:57:49.235Z,6.90
2022-11-06T05:59:55.507Z,7.65
2022-11-06T06:02:01.015Z,7.10
2022-11-06T06:04:06.357Z,6.82
2022-11-06T06:06:11.791Z,7.18
2022-11-06T06:08:19.752Z,7.53
2022-11-06T06:10:27.691Z,6.63
2022-11-06T06:12:32.890Z,6.70
2022-11-06T06:14:37.921Z,6.85
2022-11-06T06:16:45.476Z,7.13
2022-11-06T06:18:52.963Z,6.55
2022-11-06T06:23:09.676Z,6.40
2022-11-06T06:25:22.373Z,6.95
2022-11-06T06:27:32.720Z,7.22
2022-11-06T06:29:39.016Z,6.95
2022-11-06T06:31:44.289Z,6.82
2022-11-06T06:33:50.099Z,7.28
2022-11-06T06:35:58.481Z,7.07
2022-11-06T06:38:04.102Z,7.38
2022-11-06T06:40:16.147Z,7.45
2022-11-06T06:42:21.585Z,7.00
2022-11-06T06:44:29.923Z,7.68
2022-11-06T06:48:40.530Z,7.30
2022-11-06T06:50:45.631Z,7.82
2022-11-06T06:52:51.501Z,7.85
2022-11-06T06:55:02.327Z,7.97
2022-11-06T06:57:07.791Z,8.48
2022-11-06T06:59:13.938Z,9.18
2022-11-06T07:01:23.315Z,8.05
2022-11-06T07:03:28.898Z,8.25
2022-11-06T07:05:34.815Z,8.95
2022-11-06T07:07:39.852Z,8.93
2022-11-06T07:09:45.765Z,8.90
2022-11-06T07:11:51.501Z,8.80
2022-11-06T07:14:00.680Z,9.10
2022-11-06T07:16:07.400Z,9.38
2022-11-06T07:18:15.292Z,9.43
2022-11-06T07:20:21.663Z,8.32
2022-11-06T07:22:35.537Z,8.07
2022-11-06T07:24:46.380Z,8.20
2022-11-06T07:26:52.381Z,7.75
2022-11-06T07:28:58.244Z,7.90
2022-11-06T07:31:05.104Z,7.85
2022-11-06T07:33:14.349Z,7.75
2022-11-06T07:35:20.494Z,7.07
2022-11-06T07:37:25.752Z,7.18
2022-11-06T07:39:31.510Z,7.15
2022-11-06T07:41:38.384Z,7.53
2022-11-06T07:43:46.069Z,7.55
2022-11-06T07:45:51.667Z,7.22
2022-11-06T07:47:59.471Z,7.65
2022-11-06T07:50:12.551Z,7.53
2022-11-06T07:52:18.863Z,7.05
2022-11-06T07:54:24.177Z,6.90
2022-11-06T07:56:29.229Z,7.45
2022-11-06T07:58:35.818Z,6.45
2022-11-06T08:00:42.901Z,6.32
2022-11-06T08:02:47.961Z,6.47
2022-11-06T08:04:53.537Z,6.90
2022-11-06T08:07:03.555Z,6.47
2022-11-06T08:09:11.394Z,6.72
2022-11-06T08:11:17.129Z,6.22
2022-11-06T08:13:22.693Z,6.65
2022-11-06T08:15:29.945Z,6.00
2022-11-06T08:17:37.560Z,6.15
2022-11-06T08:19:42.978Z,6.53
2022-11-06T08:21:48.022Z,7.15
2022-11-06T08:23:58.860Z,6.65
2022-11-06T08:26:07.425Z,7.03
2022-11-06T08:28:13.675Z,6.85
2022-11-06T08:30:20.606Z,7.78
2022-11-06T08:32:25.618Z,6.88
2022-11-06T08:34:30.796Z,6.85
2022-11-06T08:36:49.272Z,6.65
2022-11-06T08:38:58.486Z,7.90
2022-11-06T08:41:08.901Z,7.50
2022-11-06T08:43:14.912Z,7.93
2022-11-06T08:45:23.069Z,7.18
2022-11-06T08:47:28.141Z,7.30
2022-11-06T08:49:35.218Z,7.10
2022-11-06T08:51:40.469Z,6.30
2022-11-06T08:53:45.573Z,6.65
2022-11-06T08:55:55.515Z,6.47
2022-11-06T08:58:02.731Z,7.32
2022-11-06T09:00:09.703Z,6.60
2022-11-06T09:02:17.835Z,6.33
2022-11-06T09:04:23.658Z,6.22
2022-11-06T09:06:29.655Z,6.15
2022-11-06T09:08:35.600Z,6.03
2022-11-06T09:10:42.555Z,5.70
2022-11-06T09:12:50.201Z,6.07
2022-11-06T09:14:55.529Z,5.65
2022-11-06T09:17:01.638Z,5.80
2022-11-06T09:19:06.928Z,5.85
2022-11-06T09:21:12.357Z,5.07
2022-11-06T09:23:17.531Z,5.03
2022-11-06T09:25:23.885Z,5.70
2022-11-06T09:27:29.174Z,5.43
2022-11-06T09:29:41.402Z,5.10
2022-11-06T09:31:47.442Z,4.75
2022-11-06T09:33:55.886Z,5.15
2022-11-06T09:36:00.928Z,4.90
2022-11-06T09:38:10.025Z,5.45
2022-11-06T09:40:23.955Z,3.40
2022-11-06T09:42:44.191Z,4.50
2022-11-06T09:45:05.164Z,4.72
2022-11-06T09:47:19.888Z,4.85
2022-11-06T09:49:33.630Z,4.20
2022-11-06T09:51:48.089Z,4.70
2022-11-06T09:54:02.568Z,4.80
2022-11-06T09:56:11.021Z,4.45
2022-11-06T09:58:21.613Z,4.30
2022-11-06T10:00:30.383Z,4.35
2022-11-06T10:02:43.458Z,4.90
2022-11-06T10:04:58.041Z,4.10
2022-11-06T10:07:03.114Z,3.83
2022-11-06T10:09:10.469Z,3.90
2022-11-06T10:11:49.320Z,3.13
2022-11-06T10:14:04.876Z,3.72
2022-11-06T10:16:25.709Z,3.22
2022-11-06T10:18:44.543Z,3.90
2022-11-06T10:20:55.626Z,3.55
2022-11-06T10:23:15.864Z,4.00
2022-11-06T10:25:24.474Z,3.65
2022-11-06T10:27:43.682Z,3.70
2022-11-06T10:30:08.364Z,2.95
2022-11-06T10:33:10.803Z,4.13
2022-11-06T10:35:23.253Z,3.30
2022-11-06T10:37:32.749Z,3.30
2022-11-06T10:39:41.576Z,3.72
2022-11-06T10:41:51.661Z,4.00
2022-11-06T10:44:05.772Z,3.60
2022-11-06T10:46:25.807Z,3.47
2022-11-06T10:48:41.115Z,3.58
2022-11-06T10:51:04.447Z,3.15
2022-11-06T10:53:16.818Z,4.47
2022-11-06T10:55:57.841Z,4.32
2022-11-06T10:58:06.362Z,3.15
2022-11-06T11:00:16.072Z,2.92
2022-11-06T11:02:32.710Z,2.75
2022-11-06T11:04:44.054Z,3.45
2022-11-06T11:06:49.520Z,2.80
2022-11-06T11:08:57.122Z,3.95
2022-11-06T11:11:06.011Z,3.22
2022-11-06T11:13:23.415Z,2.47
2022-11-06T11:15:31.017Z,2.88
2022-11-06T11:17:37.803Z,2.97
2022-11-06T11:19:45.375Z,3.25
2022-11-06T11:21:58.696Z,2.67
2022-11-06T11:24:13.671Z,2.50
2022-11-06T11:26:27.685Z,2.55
2022-11-06T11:28:38.538Z,2.63
2022-11-06T11:30:43.516Z,2.58
2022-11-06T11:32:49.689Z,2.78
2022-11-06T11:35:00.012Z,2.55
2022-11-06T11:37:08.674Z,2.88
2022-11-06T11:39:13.764Z,2.78
2022-11-06T11:41:27.868Z,2.88
2022-11-06T11:43:33.654Z,2.50
2022-11-06T11:45:40.918Z,2.65
2022-11-06T11:47:49.440Z,2.90
2022-11-06T11:49:57.893Z,2.30
2022-11-06T11:52:07.692Z,2.47
2022-11-06T11:54:23.463Z,2.85
2022-11-06T11:57:02.409Z,3.13
2022-11-06T11:58:59.467Z,2.47
2022-11-06T12:01:08.753Z,2.35
2022-11-06T12:05:34.465Z,2.95
2022-11-06T12:09:53.154Z,3.20
2022-11-06T12:12:01.694Z,3.25
2022-11-06T12:14:30.214Z,2.70
2022-11-06T12:16:36.672Z,2.85
2022-11-06T12:18:46.725Z,2.85
2022-11-06T12:21:01.987Z,2.80
2022-11-06T12:23:13.376Z,2.80
2022-11-06T12:25:26.149Z,2.83
2022-11-06T12:27:37.531Z,2.50
2022-11-06T12:29:48.221Z,2.53
2022-11-06T12:32:01.553Z,2.47
2022-11-06T12:34:17.669Z,3.10
2022-11-06T12:36:39.597Z,2.63
2022-11-06T12:38:56.726Z,2.70
2022-11-06T12:41:09.421Z,2.80
2022-11-06T12:43:23.508Z,2.70
2022-11-06T12:45:48.932Z,2.92
2022-11-06T12:48:04.137Z,2.50
2022-11-06T12:50:36.348Z,2.63
2022-11-06T12:53:19.760Z,2.92
2022-11-06T12:55:34.519Z,2.17
2022-11-06T12:57:51.980Z,2.30
2022-11-06T13:00:12.310Z,2.60
2022-11-06T13:02:37.562Z,2.25
2022-11-06T13:04:59.511Z,2.40
2022-11-06T13:07:47.268Z,3.08
2022-11-06T13:10:05.453Z,3.13
2022-11-06T13:12:21.778Z,3.13
2022-11-06T13:14:35.179Z,3.40
2022-11-06T13:16:53.080Z,3.22
2022-11-06T13:19:08.919Z,3.10
2022-11-06T13:21:23.569Z,3.35
2022-11-06T13:23:37.078Z,3.17
2022-11-06T13:25:52.527Z,2.88
2022-11-06T13:28:09.616Z,2.90
2022-11-06T13:30:19.909Z,2.90
2022-11-06T13:32:29.740Z,2.88
2022-11-06T13:34:40.646Z,3.17
2022-11-06T13:36:46.326Z,2.92
2022-11-06T13:38:56.377Z,3.17
2022-11-06T13:41:10.810Z,3.10
2022-11-06T13:43:22.329Z,3.20
2022-11-06T13:45:28.677Z,2.70
2022-11-06T13:47:54.025Z,2.95
2022-11-06T13:50:10.795Z,3.70
2022-11-06T13:52:24.604Z,3.47
2022-11-06T13:54:44.583Z,3.00
2022-11-06T13:57:36.333Z,3.60
2022-11-06T14:00:04.282Z,3.20
2022-11-06T14:02:42.152Z,3.35
2022-11-06T14:05:42.436Z,3.70
2022-11-06T14:07:49.248Z,3.90
2022-11-06T14:09:54.360Z,4.10
2022-11-06T14:12:08.962Z,3.97
2022-11-06T14:14:28.657Z,4.20
2022-11-06T14:16:37.408Z,3.90
2022-11-06T14:18:43.422Z,3.67
2022-11-06T14:20:52.600Z,4.10
2022-11-06T14:23:22.870Z,4.90
2022-11-06T14:26:03.019Z,5.18
2022-11-06T14:28:11.978Z,3.55
2022-11-06T14:34:02.163Z,3.75
2022-11-06T14:36:28.514Z,4.03
2022-11-06T14:38:43.148Z,3.90
2022-11-06T14:40:54.032Z,4.65
2022-11-06T14:42:59.299Z,3.72
2022-11-06T14:45:14.424Z,3.95
2022-11-06T14:47:37.376Z,4.07
2022-11-06T14:49:47.082Z,4.35
2022-11-06T14:52:03.551Z,5.03
2022-11-06T14:54:24.573Z,5.25
2022-11-06T14:56:38.182Z,3.88
2022-11-06T14:58:51.556Z,4.70
2022-11-06T15:00:59.420Z,4.90
2022-11-06T15:03:07.752Z,5.03
2022-11-06T15:05:21.090Z,4.45
2022-11-06T15:08:04.620Z,4.97
2022-11-06T15:10:04.049Z,4.95
2022-11-06T15:12:11.796Z,6.05
2022-11-06T15:16:57.732Z,5.45
2022-11-06T15:19:05.344Z,5.82
2022-11-06T15:21:18.980Z,5.63
2022-11-06T15:23:29.636Z,6.22
2022-11-06T15:25:36.455Z,6.35
2022-11-06T15:27:54.025Z,6.22
2022-11-06T15:30:04.532Z,6.78
2022-11-06T15:32:15.866Z,6.60
2022-11-06T15:34:30.129Z,6.70
2022-11-06T15:36:42.453Z,6.80
2022-11-06T15:38:47.935Z,7.55
2022-11-06T15:40:56.367Z,7.03
2022-11-06T15:43:18.756Z,7.22
2022-11-06T15:45:29.685Z,7.32
2022-11-06T15:47:35.757Z,6.97
2022-11-06T15:49:40.858Z,7.45
2022-11-06T15:51:55.440Z,7.97
2022-11-06T15:54:00.427Z,8.13
2022-11-06T15:56:10.788Z,7.07
2022-11-06T15:58:32.715Z,7.70
2022-11-06T16:00:39.710Z,8.35
2022-11-06T16:02:53.230Z,8.80
2022-11-06T16:04:58.822Z,8.38
2022-11-06T16:07:06.272Z,8.20
2022-11-06T16:09:19.832Z,8.68
2022-11-06T16:11:28.226Z,8.95
2022-11-06T16:13:40.422Z,8.00
2022-11-06T16:15:52.724Z,8.68
2022-11-06T16:18:07.480Z,8.25
2022-11-06T16:20:17.146Z,8.32
2022-11-06T16:22:30.864Z,8.82
2022-11-06T16:24:44.065Z,8.60
2022-11-06T16:26:52.892Z,8.50
2022-11-06T16:29:00.997Z,8.68
2022-11-06T16:31:13.724Z,8.95
2022-11-06T16:33:25.064Z,8.77
2022-11-06T16:35:36.539Z,9.02
2022-11-06T16:37:42.799Z,8.82
2022-11-06T16:39:50.920Z,8.82
2022-11-06T16:44:31.737Z,8.85
2022-11-06T16:47:19.813Z,9.40
2022-11-06T16:49:35.940Z,9.38
2022-11-06T16:51:41.288Z,9.05
2022-11-06T16:54:00.517Z,9.13
2022-11-06T16:56:09.897Z,9.23
2022-11-06T16:58:19.962Z,9.55
2022-11-06T17:00:31.023Z,9.02
2022-11-06T17:02:42.530Z,9.45
2022-11-06T17:04:47.620Z,8.85
2022-11-06T17:06:55.640Z,9.52
2022-11-06T17:09:09.868Z,9.90
2022-11-06T17:11:21.859Z,10.48
2022-11-06T17:13:30.258Z,9.77
2022-11-06T17:15:38.347Z,9.98
2022-11-06T17:17:45.905Z,10.35
2022-11-06T17:19:50.939Z,10.50
2022-11-06T17:21:56.556Z,9.50
2022-11-06T17:24:24.356Z,10.10
2022-11-06T17:26:31.081Z,10.80
2022-11-06T17:28:36.318Z,9.82
2022-11-06T17:30:42.309Z,10.43
2022-11-06T17:32:49.941Z,10.00
2022-11-06T17:34:55.276Z,10.32
2022-11-06T17:37:00.599Z,10.02
2022-11-06T17:39:05.790Z,10.27
2022-11-06T17:41:11.161Z,10.55
2022-11-06T17:43:17.184Z,10.52
2022-11-06T17:45:23.101Z,10.63
2022-11-06T17:47:28.341Z,9.25
2022-11-06T17:49:35.906Z,10.38
2022-11-06T17:51:58.718Z,7.85
2022-11-06T17:54:04.089Z,9.85
2022-11-06T17:56:10.639Z,9.88
2022-11-06T17:58:18.443Z,10.40
2022-11-06T18:00:24.733Z,10.23
2022-11-06T18:02:55.305Z,10.55
2022-11-06T18:07:04.771Z,9.52
2022-11-06T18:09:10.914Z,10.35
2022-11-06T18:11:16.863Z,10.40
2022-11-06T18:13:23.246Z,9.18
2022-11-06T18:15:28.242Z,9.68
2022-11-06T18:17:33.742Z,10.20
2022-11-06T18:19:39.215Z,9.30
2022-11-06T18:21:46.821Z,9.50
2022-11-06T18:23:51.860Z,9.45
2022-11-06T18:25:58.746Z,10.10
2022-11-06T18:28:04.097Z,10.15
2022-11-06T18:30:10.854Z,9.45
2022-11-06T18:32:19.683Z,9.57
2022-11-06T18:34:24.947Z,10.40
2022-11-06T18:36:30.906Z,9.93
2022-11-06T18:38:39.047Z,10.13
2022-11-06T18:40:51.207Z,10.02
2022-11-06T18:42:57.222Z,10.02
2022-11-06T18:45:02.188Z,9.98
2022-11-06T18:47:08.540Z,9.43
2022-11-06T18:49:14.273Z,9.32
2022-11-06T18:51:34.588Z,10.20
2022-11-06T18:53:46.425Z,10.10
2022-11-06T18:55:52.602Z,11.52
2022-11-06T18:57:57.810Z,12.02
2022-11-06T19:00:03.039Z,10.68
2022-11-06T19:02:08.128Z,11.60
2022-11-06T19:04:13.906Z,11.15
2022-11-06T19:06:21.808Z,11.80
2022-11-06T19:08:26.882Z,10.88
2022-11-06T19:10:34.432Z,11.75
2022-11-06T19:12:39.714Z,12.48
2022-11-06T19:14:44.985Z,12.10
2022-11-06T19:16:50.178Z,12.10
2022-11-06T19:21:09.249Z,12.90
2022-11-06T19:23:17.620Z,12.90
2022-11-06T19:25:24.367Z,12.75
2022-11-06T19:27:32.458Z,13.48
2022-11-06T19:29:40.192Z,12.73
2022-11-06T19:31:45.420Z,13.90
2022-11-06T19:33:50.669Z,12.63
2022-11-06T19:35:55.706Z,13.18
2022-11-06T19:38:01.077Z,12.50
2022-11-06T19:40:07.448Z,12.07
2022-11-06T19:42:12.408Z,13.57
2022-11-06T19:44:22.087Z,12.63
2022-11-06T19:46:33.891Z,13.07
2022-11-06T19:48:41.063Z,13.45
2022-11-06T19:51:04.960Z,11.82
2022-11-06T19:53:10.063Z,11.18
2022-11-06T19:55:26.811Z,13.05
2022-11-06T19:57:36.147Z,12.55
2022-11-06T19:59:45.479Z,12.43
2022-11-06T20:01:52.187Z,12.52
2022-11-06T20:03:57.623Z,10.70
2022-11-06T20:06:07.624Z,12.13
2022-11-06T20:08:14.109Z,11.77
2022-11-06T20:10:19.323Z,12.50
2022-11-06T20:12:24.339Z,12.27
2022-11-06T20:14:29.618Z,11.88
2022-11-06T20:16:37.496Z,11.75
2022-11-06T20:20:47.733Z,11.20
2022-11-06T20:22:55.149Z,11.35
2022-11-06T20:25:00.143Z,12.40
2022-11-06T20:27:11.061Z,11.10
2022-11-06T20:29:18.327Z,11.10
2022-11-06T20:31:23.721Z,9.35
2022-11-06T20:33:32.503Z,10.02
2022-11-06T20:35:38.786Z,10.65
2022-11-06T20:37:44.306Z,9.85
2022-11-06T20:39:49.701Z,10.18
2022-11-06T20:41:54.654Z,9.70
2022-11-06T20:44:00.590Z,9.20
2022-11-06T20:46:07.084Z,9.50
2022-11-06T20:50:21.083Z,8.75
2022-11-06T20:54:30.935Z,9.30
2022-11-06T20:56:35.966Z,10.10
2022-11-06T20:58:41.847Z,9.68
2022-11-06T21:00:46.822Z,9.73
2022-11-06T21:02:54.317Z,8.82
2022-11-06T21:05:02.982Z,10.18
2022-11-06T21:07:10.542Z,8.85
2022-11-06T21:09:17.124Z,8.20
2022-11-06T21:11:25.336Z,8.30
2022-11-06T21:13:30.857Z,7.32
2022-11-06T21:15:36.896Z,8.15
2022-11-06T21:17:44.380Z,7.55
2022-11-06T21:21:56.814Z,8.18
2022-11-06T21:24:07.431Z,8.20
2022-11-06T21:26:15.749Z,8.18
2022-11-06T21:28:22.295Z,7.85
2022-11-06T21:30:27.952Z,8.15
2022-11-06T21:32:32.906Z,8.73
2022-11-06T21:34:41.194Z,8.63
2022-11-06T21:36:46.992Z,8.77
2022-11-06T21:38:52.181Z,10.27
2022-11-06T21:40:59.980Z,18.42
2022-11-06T21:43:05.964Z,9.45
2022-11-06T21:45:14.859Z,9.20
2022-11-06T21:47:20.832Z,8.43
2022-11-06T21:49:30.605Z,8.35
2022-11-06T21:51:36.185Z,8.85
2022-11-06T21:53:56.900Z,8.68
2022-11-06T21:56:05.650Z,9.35
2022-11-06T21:58:11.114Z,9.40
2022-11-06T22:00:18.098Z,8.18
2022-11-06T22:02:23.831Z,9.13
2022-11-06T22:04:34.524Z,8.65
2022-11-06T22:06:42.634Z,8.57
2022-11-06T22:08:48.897Z,8.25
2022-11-06T22:10:53.928Z,8.02
2022-11-06T22:13:01.594Z,8.82
2022-11-06T22:15:08.306Z,7.88
2022-11-06T22:17:14.279Z,7.75
2022-11-06T22:19:21.245Z,7.15
2022-11-06T22:21:28.733Z,6.43
2022-11-06T22:25:42.182Z,7.15
2022-11-06T22:29:55.178Z,6.10
2022-11-06T22:34:08.270Z,6.03
2022-11-06T22:36:16.259Z,6.32
2022-11-06T22:38:21.779Z,4.47
2022-11-06T22:40:29.798Z,5.85
2022-11-06T22:42:35.057Z,5.40
2022-11-06T22:44:40.097Z,6.00
2022-11-06T22:46:48.154Z,5.63
2022-11-06T22:50:59.769Z,4.72
2022-11-06T22:53:05.068Z,4.53
2022-11-06T22:55:11.373Z,4.20
2022-11-06T22:57:16.901Z,4.28
2022-11-06T22:59:22.444Z,3.45
2022-11-06T23:01:36.066Z,3.45
2022-11-06T23:03:49.466Z,4.00
2022-11-06T23:05:58.408Z,3.83
2022-11-06T23:08:03.353Z,3.50
2022-11-06T23:10:11.116Z,4.15
2022-11-06T23:12:16.859Z,4.00
2022-11-06T23:14:22.120Z,3.40
2022-11-06T23:16:42.369Z,3.17
2022-11-06T23:18:50.998Z,3.15
2022-11-06T23:20:55.993Z,2.65
2022-11-06T23:23:03.248Z,2.30
2022-11-06T23:25:10.680Z,2.58
2022-11-06T23:27:15.881Z,3.22
2022-11-06T23:29:20.814Z,2.28
2022-11-06T23:31:26.918Z,2.70
2022-11-06T23:33:34.246Z,2.80
2022-11-06T23:35:41.885Z,2.60
2022-11-06T23:37:46.870Z,3.03
2022-11-06T23:39:52.742Z,2.60
2022-11-06T23:41:57.733Z,2.40
2022-11-06T23:44:04.030Z,2.53
2022-11-06T23:46:07.389Z,2.63
2022-11-06T23:48:15.584Z,2.20
2022-11-06T23:50:21.907Z,2.00
2022-11-06T23:52:30.256Z,2.33
2022-11-06T23:54:35.804Z,2.35
2022-11-06T23:56:40.811Z,2.28
2022-11-06T23:58:49.033Z,2.25
